Latest Weather Observations for Sheoaks

IDV60801

Issued at 4:32 pm EST Tuesday 3 May 2016 (issued every 30 minutes, with the page automatically refreshed every 10 minutes)

About weather observations | Map of weather stations | Latest weather observations for VIC | Other Formats
Station Details ID: 087168 Name: SHEOAKS Lat: -37.91 Lon: 144.13 Height: 236.7 m
Data from the previous 72 hours. | See also: Recent months at Sheoaks
Date/Time
EST
Temp
°C
App
Temp
°C
Dew
Point
Rel
Hum
%
Delta-T
°C
Wind Press
QNH
hPa
Press
MSL
hPa
Rain
since 9 am
mm
Dir
 
Spd
km/h
Gust
km/h
Spd
kts
Gust
kts
03/04:30pm 12.8 7.2 8.7 76 2.1 W 28 37 15 20 1002.4 1002.4 0.0
03/04:00pm 12.2 6.2 8.7 79 1.8 WNW 30 44 16 24 1001.8 1001.8 0.0
03/03:39pm 11.7 5.8 9.1 84 1.3 WNW 30 50 16 27 1001.6 1001.6 0.0
03/03:30pm 11.9 5.0 8.9 82 1.5 W 35 54 19 29 1001.4 1001.4 0.0
03/03:00pm 13.0 5.4 10.5 85 1.3 W 41 59 22 32 1000.4 1000.4 0.0
03/02:52pm 13.7 7.2 10.5 81 1.7 W 35 59 19 32 999.7 999.7 0.0
03/02:30pm 18.0 12.0 10.1 60 4.2 NW 32 56 17 30 998.7 998.6 0.0
03/02:00pm 17.3 9.7 10.4 64 3.7 NW 41 67 22 36 998.0 998.0 0.0
03/01:30pm 17.8 10.1 10.2 61 4.1 NW 41 69 22 37 997.6 997.6 0.0
03/01:00pm 17.3 9.1 9.7 61 4.1 NNW 43 67 23 36 997.6 997.6 0.0
03/12:45pm 16.9 7.6 9.3 61 4.0 NNW 48 74 26 40 997.5 997.5 0.0
03/12:44pm 16.9 8.0 9.3 61 4.0 NNW 46 74 25 40 997.3 997.3 0.0
03/12:30pm 17.7 11.0 9.6 59 4.3 NNW 35 57 19 31 997.9 997.9 0.0
03/12:00pm 17.0 8.6 8.9 59 4.3 NNW 43 67 23 36 998.0 998.0 0.0
03/11:30am 16.7 9.4 8.7 59 4.2 NNW 37 57 20 31 998.7 998.6 0.0
03/11:00am 17.2 9.2 8.9 58 4.4 NNW 41 67 22 36 999.0 998.9 0.0
03/10:30am 15.5 6.4 8.3 62 3.7 NNW 46 72 25 39 998.9 998.8 0.0
03/10:00am 15.6 6.0 8.1 61 3.8 NNW 48 80 26 43 999.4 999.4 0.0
03/09:30am 15.3 6.1 8.1 62 3.7 NNW 46 72 25 39 999.0 998.9 0.0
03/09:00am 15.3 6.4 7.8 61 3.8 NNW 44 67 24 36 999.6 999.6 0.0
03/08:45am 15.3 6.6 7.8 61 3.8 NNW 43 83 23 45 999.5 999.5 0.0
03/08:30am 14.8 7.6 7.6 62 3.6 NNW 35 63 19 34 999.6 999.6 0.0
03/08:00am 14.3 6.3 7.6 64 3.4 NNW 39 61 21 33 999.6 999.6 0.0
03/07:30am 13.8 5.9 7.8 67 3.0 NNW 39 61 21 33 999.7 999.7 0.0
03/07:00am 13.8 5.5 7.6 66 3.1 NNW 41 59 22 32 1000.0 1000.0 0.0
03/06:33am 13.9 6.3 7.4 65 3.2 NNW 37 59 20 32 1000.0 1000.0 0.0
03/06:30am 13.8 6.1 7.3 65 3.2 NNW 37 54 20 29 1000.2 1000.2 0.0
03/06:00am 13.9 7.2 7.4 65 3.2 NNW 32 48 17 26 1000.6 1000.6 0.0
03/05:41am 14.0 7.7 7.3 64 3.3 NNW 30 50 16 27 1000.9 1000.9 0.0
03/05:30am 13.9 7.0 7.2 64 3.3 NNW 33 46 18 25 1001.0 1001.0 0.0
03/05:05am 13.9 7.6 7.2 64 3.3 NNW 30 48 16 26 1001.2 1001.2 0.0
03/05:00am 14.0 7.6 7.1 63 3.4 NNW 30 43 16 23 1001.3 1001.3 0.0
03/04:33am 14.0 7.7 7.3 64 3.3 NNW 30 50 16 27 1001.5 1001.5 0.0
03/04:30am 14.1 7.4 7.4 64 3.3 NNW 32 50 17 27 1001.4 1001.4 0.0
03/04:00am 14.4 7.6 7.5 63 3.5 NNW 33 52 18 28 1001.4 1001.4 0.0
03/03:37am 14.4 7.8 7.7 64 3.4 NNW 32 50 17 27 1001.4 1001.4 0.0
03/03:30am 14.4 8.2 7.9 65 3.3 NNW 30 48 16 26 1001.6 1001.6 0.0
03/03:00am 14.2 7.7 8.2 67 3.1 NNW 32 50 17 27 1002.5 1002.5 0.0
03/02:31am 13.8 7.9 7.3 65 3.2 NNW 28 46 15 25 1002.9 1002.9 0.0
03/02:30am 13.8 7.9 7.3 65 3.2 NNW 28 41 15 22 1003.0 1003.0 0.0
03/02:12am 14.0 7.3 7.3 64 3.3 NNW 32 50 17 27 1003.2 1003.2 0.0
03/02:00am 14.1 7.2 7.4 64 3.3 NNW 33 48 18 26 1003.0 1003.0 0.0
03/01:42am 14.0 7.2 6.8 62 3.5 NNW 32 50 17 27 1003.4 1003.4 0.0
03/01:30am 14.0 7.5 6.6 61 3.6 NNW 30 46 16 25 1003.6 1003.6 0.0
03/01:09am 14.2 8.0 6.1 58 3.9 NNW 28 50 15 27 1004.0 1004.0 0.0
03/01:00am 14.2 8.3 5.8 57 4.1 NNW 26 43 14 23 1004.2 1004.2 0.0
03/12:30am 14.3 6.9 5.1 54 4.4 NNW 33 54 18 29 1004.2 1004.2 0.0
03/12:04am 14.4 6.6 4.7 52 4.6 NNW 35 57 19 31 1004.4 1004.4 0.0
03/12:00am 14.4 6.6 4.7 52 4.6 NNW 35 54 19 29 1004.6 1004.6 0.0
 
Date/Time
EST
Temp
°C
App
Temp
°C
Dew
Point
Rel
Hum
%
Delta-T
°C
Wind Press
QNH
hPa
Press
MSL
hPa
Rain
since 9 am
mm
Dir
 
Spd
km/h
Gust
km/h
Spd
kts
Gust
kts
02/11:30pm 14.5 7.3 4.8 52 4.6 NNW 32 52 17 28 1004.9 1004.9 0.0
02/11:00pm 14.7 7.2 4.7 51 4.7 NNW 33 54 18 29 1005.3 1005.3 0.0
02/10:49pm 14.8 7.9 4.5 50 4.8 NNW 30 50 16 27 1005.4 1005.4 0.0
02/10:30pm 14.7 8.5 4.4 50 4.8 NNW 26 43 14 23 1005.8 1005.8 0.0
02/10:00pm 14.7 7.4 4.4 50 4.8 NNW 32 48 17 26 1006.0 1006.0 0.0
02/09:30pm 14.4 7.8 4.1 50 4.8 NNW 28 46 15 25 1006.3 1006.4 0.0
02/09:07pm 14.6 7.2 4.0 49 4.9 NNW 32 50 17 27 1006.1 1006.1 0.0
02/09:00pm 14.7 7.3 4.1 49 5.0 NNW 32 50 17 27 1006.1 1006.1 0.0
02/08:30pm 14.4 7.4 4.1 50 4.8 NNW 30 48 16 26 1006.5 1006.6 0.0
02/08:10pm 14.3 7.7 4.0 50 4.8 NNW 28 48 15 26 1006.9 1007.0 0.0
02/08:00pm 14.4 7.0 4.1 50 4.8 NNW 32 46 17 25 1006.8 1006.9 0.0
02/07:36pm 14.4 7.8 4.1 50 4.8 NNW 28 54 15 29 1006.9 1007.0 0.0
02/07:30pm 14.4 8.2 4.1 50 4.8 NNW 26 43 14 23 1006.9 1007.0 0.0
02/07:05pm 14.4 7.8 4.1 50 4.8 NNW 28 48 15 26 1007.0 1007.1 0.0
02/07:00pm 14.3 8.0 4.0 50 4.8 NNW 26 37 14 20 1007.2 1007.2 0.0
02/06:30pm 14.4 8.2 4.1 50 4.8 NNW 26 41 14 22 1007.3 1007.3 0.0
02/06:00pm 14.6 8.4 4.3 50 4.8 NNW 26 43 14 23 1007.3 1007.3 0.0
02/05:30pm 14.9 8.7 4.3 49 5.0 NNW 26 43 14 23 1007.0 1007.1 0.0
02/05:00pm 15.3 8.7 4.1 47 5.3 NNW 28 39 15 21 1007.3 1007.3 0.0
02/04:32pm 15.7 9.1 4.1 46 5.4 NNW 28 56 15 30 1007.7 1007.7 0.0
02/04:30pm 15.7 9.1 4.4 47 5.3 NNW 28 44 15 24 1007.9 1007.9 0.0
02/04:05pm 15.7 8.1 4.1 46 5.4 NNW 33 52 18 28 1007.6 1007.6 0.0
02/04:00pm 15.9 8.4 4.3 46 5.5 NNW 33 52 18 28 1007.7 1007.7 0.0
02/03:30pm 16.1 8.7 3.9 44 5.7 NNW 32 52 17 28 1007.9 1007.9 0.0
02/03:00pm 16.5 9.0 4.2 44 5.8 NNW 33 52 18 28 1008.2 1008.2 0.0
02/02:30pm 16.3 8.0 4.0 44 5.8 NW 37 61 20 33 1008.2 1008.2 0.0
02/02:00pm 16.2 8.9 4.6 46 5.5 NW 32 54 17 29 1008.4 1008.4 0.0
02/01:30pm 16.0 8.5 4.4 46 5.5 NW 33 52 18 28 1008.7 1008.7 0.0
02/01:00pm 15.4 8.0 4.8 49 5.1 NW 33 54 18 29 1009.0 1009.0 0.0
02/12:30pm 15.1 8.0 5.3 52 4.7 NW 32 54 17 29 1009.6 1009.6 0.0
02/12:00pm 14.2 6.3 4.5 52 4.5 NW 35 57 19 31 1009.9 1010.0 0.0
02/11:36am 14.5 7.3 5.0 53 4.5 NNW 32 52 17 28 1010.4 1010.5 0.0
02/11:30am 14.1 6.3 4.7 53 4.4 NNW 35 52 19 28 1010.3 1010.4 0.0
02/11:02am 13.8 6.3 4.7 54 4.3 NNW 33 52 18 28 1010.6 1010.7 0.0
02/11:00am 13.7 5.8 4.3 53 4.4 NNW 35 52 19 28 1010.6 1010.7 0.0
02/10:41am 13.3 6.0 4.5 55 4.1 NW 32 52 17 28 1010.9 1011.0 0.0
02/10:30am 13.3 6.1 5.0 57 3.9 NNW 32 46 17 25 1011.1 1011.2 0.0
02/10:10am 13.0 6.5 4.9 58 3.8 NNW 28 46 15 25 1011.4 1011.5 0.0
02/10:00am 12.9 7.7 5.3 60 3.6 NNW 22 41 12 22 1011.8 1011.8 0.0
02/09:30am 11.6 6.3 4.8 63 3.1 NNW 22 32 12 17 1012.1 1012.1 0.0
02/09:00am 10.4 5.5 4.1 65 2.8 NNW 19 28 10 15 1012.2 1012.2 1.8
02/08:30am 10.2 5.3 4.1 66 2.7 NNW 19 30 10 16 1012.5 1012.5 1.8
02/08:00am 9.5 4.3 3.7 67 2.6 NNW 20 32 11 17 1012.7 1012.7 1.8
02/07:30am 9.1 4.0 3.3 67 2.5 NNW 19 28 10 15 1012.6 1012.6 1.8
02/07:00am 8.8 4.1 3.0 67 2.5 NNW 17 22 9 12 1012.5 1012.5 1.8
02/06:30am 8.8 4.1 3.0 67 2.5 NNW 17 24 9 13 1012.6 1012.6 1.8
02/06:00am 8.5 3.8 2.9 68 2.4 NNW 17 24 9 13 1012.6 1012.6 1.8
02/05:30am 8.3 4.4 3.2 70 2.2 NNW 13 20 7 11 1012.9 1012.9 1.8
02/05:00am 7.8 4.3 3.3 73 1.9 NNW 11 15 6 8 1012.9 1012.9 1.8
02/04:30am 8.1 4.6 3.4 72 2.0 NNW 11 17 6 9 1012.8 1012.8 1.8
02/04:00am 8.0 4.0 3.1 71 2.1 NNW 13 19 7 10 1012.8 1012.8 1.8
02/03:30am 7.8 3.8 3.1 72 2.0 NNW 13 20 7 11 1013.2 1013.2 1.8
02/03:00am 7.9 4.0 3.2 72 2.0 NNW 13 19 7 10 1013.5 1013.6 1.8
02/02:30am 7.9 4.4 3.4 73 1.9 NNW 11 17 6 9 1013.8 1013.9 1.8
02/02:00am 7.9 4.3 3.2 72 2.0 NNW 11 17 6 9 1014.0 1014.1 1.8
02/01:30am 8.0 4.1 3.3 72 2.0 NNW 13 19 7 10 1014.2 1014.3 1.8
02/01:00am 7.4 4.2 3.3 75 1.8 NNW 9 13 5 7 1014.4 1014.5 1.8
02/12:30am 8.0 4.1 3.5 73 2.0 NNW 13 19 7 10 1014.8 1014.9 1.8
02/12:00am 8.0 4.6 3.8 75 1.8 NNW 11 17 6 9 1015.1 1015.2 1.8
 
Date/Time
EST
Temp
°C
App
Temp
°C
Dew
Point
Rel
Hum
%
Delta-T
°C
Wind Press
QNH
hPa
Press
MSL
hPa
Rain
since 9 am
mm
Dir
 
Spd
km/h
Gust
km/h
Spd
kts
Gust
kts
01/11:30pm 8.2 4.4 3.9 74 1.9 NW 13 19 7 10 1015.3 1015.4 1.8
01/11:00pm 8.4 4.6 3.8 73 2.0 NW 13 17 7 9 1015.4 1015.5 1.8
01/10:30pm 8.3 4.1 3.9 74 1.9 NNW 15 20 8 11 1015.5 1015.6 1.8
01/10:00pm 8.4 4.7 4.2 75 1.9 NW 13 19 7 10 1015.6 1015.7 1.8
01/09:30pm 8.5 5.2 4.3 75 1.9 NW 11 17 6 9 1015.4 1015.5 1.8
01/09:00pm 8.8 5.5 4.4 74 2.0 NW 11 15 6 8 1015.1 1015.2 1.8
01/08:30pm 9.1 5.8 4.5 73 2.1 NW 11 17 6 9 1015.0 1015.1 1.8
01/08:00pm 9.5 5.8 4.5 71 2.2 NW 13 24 7 13 1014.9 1015.0 1.6
01/07:30pm 10.0 5.2 4.6 69 2.4 WNW 19 30 10 16 1014.5 1014.6 1.6
01/07:00pm 9.9 5.8 4.5 69 2.4 WNW 15 24 8 13 1014.2 1014.3 1.6
01/06:30pm 10.1 5.4 5.1 71 2.3 WNW 19 26 10 14 1013.9 1014.0 1.6
01/06:00pm 10.1 5.9 5.9 75 2.0 WNW 17 28 9 15 1013.6 1013.7 1.6
01/05:30pm 10.3 5.4 6.8 79 1.7 W 22 35 12 19 1013.1 1013.1 1.6
01/05:00pm 11.5 5.4 4.9 64 3.1 W 26 37 14 20 1012.5 1012.5 1.4
01/04:30pm 11.9 6.3 5.3 64 3.1 WNW 24 41 13 22 1012.5 1012.5 1.4
01/04:00pm 11.4 6.7 6.1 70 2.5 W 20 33 11 18 1012.1 1012.1 1.4
01/03:30pm 11.6 7.1 6.1 69 2.6 W 19 30 10 16 1011.6 1011.6 1.2
01/03:00pm 9.3 4.2 5.9 79 1.6 WSW 22 50 12 27 1011.6 1011.6 1.2
01/02:49pm 10.4 2.5 4.3 66 2.8 W 35 56 19 30 1011.4 1011.5 0.8
01/02:48pm 10.9 3.0 4.4 64 3.0 W 35 56 19 30 1011.4 1011.5 0.8
01/02:30pm 13.4 6.4 6.0 61 3.6 W 32 50 17 27 1010.5 1010.6 0.8
01/02:04pm 13.2 5.8 6.8 65 3.1 W 35 54 19 29 1009.8 1009.9 0.8
01/02:00pm 12.9 5.0 6.3 64 3.2 W 37 54 20 29 1009.6 1009.6 0.8
01/01:30pm 11.8 4.5 7.3 74 2.2 WNW 35 54 19 29 1009.2 1009.2 0.8
01/01:00pm 11.4 4.0 6.9 74 2.2 WNW 35 57 19 31 1009.2 1009.2 0.8
01/12:38pm 12.1 4.2 6.4 68 2.7 WNW 37 57 20 31 1009.1 1009.1 0.8
01/12:30pm 12.1 5.1 6.8 70 2.6 W 33 50 18 27 1009.2 1009.2 0.8
01/12:02pm 12.0 5.9 6.7 70 2.6 WNW 28 46 15 25 1009.2 1009.2 0.6
01/12:00pm 12.1 5.7 6.8 70 2.6 WNW 30 46 16 25 1009.3 1009.3 0.6
01/11:33am 11.0 4.5 6.7 75 2.1 W 30 50 16 27 1009.1 1009.1 0.6
01/11:30am 11.1 4.7 7.0 76 2.0 W 30 48 16 26 1009.1 1009.1 0.6
01/11:06am 11.0 4.2 6.9 76 2.0 WNW 32 54 17 29 1008.8 1008.8 0.6
01/11:00am 11.0 4.2 7.1 77 1.9 WNW 32 48 17 26 1008.6 1008.6 0.6
01/10:30am 10.6 4.0 7.7 82 1.4 W 32 54 17 29 1008.2 1008.2 0.6
01/10:29am 10.8 4.3 8.0 83 1.4 WNW 32 54 17 29 1008.4 1008.4 0.6
01/10:00am 12.0 6.1 7.5 74 2.2 WNW 28 44 15 24 1007.4 1007.4 0.0
01/09:30am 12.6 5.8 7.5 71 2.5 WNW 33 54 18 29 1006.7 1006.5 0.0
01/09:00am 12.1 5.8 7.4 73 2.3 NW 30 50 16 27 1006.1 1005.9 10.4
01/08:59am 12.0 6.1 7.3 73 2.3 NW 28 48 15 26 1006.0 1005.8 10.4
01/08:30am 11.6 5.7 7.7 77 1.9 NW 28 43 15 23 1005.7 1005.5 10.2
01/08:00am 10.7 5.4 7.0 78 1.8 NW 24 35 13 19 1005.3 1005.1 10.2
01/07:31am 9.8 3.4 6.9 82 1.4 NW 30 50 16 27 1005.1 1004.9 10.2
01/07:30am 9.9 3.1 6.8 81 1.5 NW 32 50 17 27 1005.1 1004.9 10.2
01/07:00am 13.2 7.9 7.0 66 3.1 NW 24 43 13 23 1003.7 1003.4 8.4
01/06:40am 13.3 7.3 6.9 65 3.1 NW 28 48 15 26 1003.5 1003.2 8.4
01/06:30am 13.2 8.0 7.2 67 3.0 NW 24 41 13 22 1003.6 1003.3 8.4
01/06:00am 13.8 9.0 9.0 73 2.5 NW 24 46 13 25 1003.0 1002.7 8.4
01/05:30am 14.0 10.3 9.4 74 2.4 NW 19 32 10 17 1002.4 1002.2 8.4
01/05:00am 14.3 10.3 8.9 70 2.8 NW 20 37 11 20 1002.5 1002.3 8.4
01/04:30am 14.2 11.0 9.8 75 2.3 NW 17 30 9 16 1002.2 1002.0 8.4
01/04:00am 14.4 11.9 11.0 80 1.8 NNW 15 26 8 14 1001.8 1001.6 8.4
01/03:30am 14.6 12.6 11.6 82 1.6 NW 13 20 7 11 1002.8 1002.5 8.4
01/03:00am 14.5 11.5 11.8 84 1.5 NW 19 35 10 19 1003.3 1003.0 8.2
01/02:30am 15.2 11.6 12.9 86 1.3 NNW 24 39 13 21 1003.6 1003.3 6.2
01/02:00am 15.4 11.7 12.7 84 1.5 NNW 24 41 13 22 1003.8 1003.5 3.6
01/01:30am 14.8 11.2 11.9 83 1.6 N 22 33 12 18 1004.4 1004.1 2.4
01/01:11am 16.2 11.9 13.1 82 1.7 NW 28 48 15 26 1005.4 1005.2 1.2
01/01:00am 19.0 16.8 13.4 70 3.2 NNW 17 28 9 15 1005.1 1004.9 0.0
01/12:30am 19.2 15.2 12.9 67 3.6 N 26 39 14 21 1004.5 1004.3 0.0
01/12:00am 19.2 15.2 12.9 67 3.6 N 26 37 14 20 1004.4 1004.1 0.0
 
Date/Time
EST
Temp
°C
App
Temp
°C
Dew
Point
Rel
Hum
%
Delta-T
°C
Wind Press
QNH
hPa
Press
MSL
hPa
Rain
since 9 am
mm
Dir
 
Spd
km/h
Gust
km/h
Spd
kts
Gust
kts
30/11:43pm 19.3 15.0 13.3 68 3.4 N 28 48 15 26 1004.8 1004.6 0.0
30/11:30pm 19.1 15.1 13.1 68 3.4 N 26 43 14 23 1005.3 1005.1 0.0
30/11:00pm 19.5 15.5 13.0 66 3.7 N 26 37 14 20 1006.2 1006.0 0.0
30/10:30pm 19.8 15.7 12.8 64 4.0 N 26 41 14 22 1007.2 1006.9 0.0
30/10:00pm 19.4 16.4 12.7 65 3.8 N 20 30 11 16 1008.0 1007.7 0.0
30/09:30pm 19.4 16.6 12.7 65 3.8 N 19 26 10 14 1008.5 1008.3 0.0
30/09:00pm 19.4 16.1 12.9 66 3.7 N 22 37 12 20 1008.3 1008.1 0.0
30/08:30pm 19.2 16.4 13.2 68 3.4 N 20 32 11 17 1008.9 1008.7 0.0
30/08:00pm 18.9 16.3 13.3 70 3.2 N 19 30 10 16 1009.2 1009.0 0.0
30/07:30pm 18.5 16.6 13.1 71 3.1 N 15 24 8 13 1009.4 1009.2 0.0
30/07:00pm 18.1 16.9 12.8 71 3.0 N 11 17 6 9 1009.8 1009.6 0.0
30/06:30pm 18.8 16.8 12.8 68 3.4 N 15 26 8 14 1009.7 1009.5 0.0
30/06:00pm 19.1 16.7 12.6 66 3.7 N 17 24 9 13 1009.7 1009.5 0.0
30/05:30pm 19.6 17.2 12.6 64 4.0 N 17 26 9 14 1009.9 1009.7 0.0
30/05:00pm 20.4 17.4 12.4 60 4.6 N 20 33 11 18 1010.0 1009.8 0.0

Other Formats:

Comma delimited format used in spreadsheet applications
http://www.bom.gov.au/fwo/IDV60801/IDV60801.94863.axf

JavaScript Object Notation format (JSON) in row-major order
http://www.bom.gov.au/fwo/IDV60801/IDV60801.94863.json